Time;durP1;ratioP1;P1;durP2;ratioP2;P2;SDS_P1;SDS_P2;PMS_P1;PMS_P2;Temp;Humidity;BMP_temperature;BMP_pressure;BME280_temperature;BME280_humidity;BME280_pressure;Samples;Min_cycle;Max_cycle;Signal;HPM_P1;HPM_P2
2022/10/17 00:01:01;;;;;;;19.73;13.35;;;;;;;12.33;56.59;101089.72;5073946;28;20024;-42
2022/10/17 00:03:26;;;;;;;19.13;12.68;;;;;;;12.41;56.29;101086.13;5074032;28;20052;-42
2022/10/17 00:05:52;;;;;;;19.85;12.38;;;;;;;12.36;56.70;101096.56;5073904;28;20079;-43
2022/10/17 00:08:18;;;;;;;20.02;12.35;;;;;;;12.25;56.54;101099.66;5074054;28;20044;-43
2022/10/17 00:10:44;;;;;;;19.38;12.52;;;;;;;12.23;56.24;101096.34;5073879;28;20035;-43
2022/10/17 00:13:10;;;;;;;18.80;12.85;;;;;;;12.06;56.64;101096.50;5073855;28;20608;-42
2022/10/17 00:15:36;;;;;;;19.90;13.38;;;;;;;12.01;56.89;101104.19;5073695;28;20402;-43
2022/10/17 00:18:02;;;;;;;18.60;12.55;;;;;;;11.83;57.61;101101.81;5073644;28;20532;-43
2022/10/17 00:20:29;;;;;;;20.88;13.73;;;;;;;12.01;56.53;101111.38;5073312;28;20029;-43
2022/10/17 00:22:55;;;;;;;21.08;13.57;;;;;;;11.61;58.04;101098.13;5073354;28;20085;-43
2022/10/17 00:25:21;;;;;;;19.13;13.10;;;;;;;11.76;57.75;101105.38;5073658;28;20031;-42
2022/10/17 00:27:46;;;;;;;21.77;13.95;;;;;;;11.92;57.32;101100.78;5073635;28;20021;-43
2022/10/17 00:30:14;;;;;;;20.48;13.18;;;;;;;11.84;57.27;101102.63;5073457;28;20016;-49
2022/10/17 00:32:40;;;;;;;19.85;13.05;;;;;;;11.90;57.01;101094.81;5073180;28;20017;-42
2022/10/17 00:35:07;;;;;;;17.85;13.15;;;;;;;11.93;57.53;101093.59;5072698;28;20021;-43
2022/10/17 00:37:33;;;;;;;19.60;13.52;;;;;;;11.93;56.89;101102.41;5073142;28;20024;-43
2022/10/17 00:39:58;;;;;;;18.55;13.43;;;;;;;12.01;57.45;101100.69;5073481;28;20077;-42
2022/10/17 00:42:25;;;;;;;21.67;12.73;;;;;;;11.77;58.07;101093.72;5073150;28;20043;-42
2022/10/17 00:45:12;;;;;;;20.60;13.48;;;;;;;11.77;58.49;101104.38;5073112;28;20598;-42
2022/10/17 00:47:39;;;;;;;20.40;13.35;;;;;;;11.80;57.77;101107.50;5073120;28;20147;-42
2022/10/17 00:50:05;;;;;;;20.38;12.77;;;;;;;11.72;57.97;101102.22;5073338;28;20115;-42
2022/10/17 00:52:32;;;;;;;19.17;12.95;;;;;;;11.88;57.69;101112.78;5073240;28;20099;-43
2022/10/17 00:55:01;;;;;;;19.95;12.77;;;;;;;12.01;56.60;101101.53;5072928;28;20043;-40
2022/10/17 00:57:29;;;;;;;18.58;12.68;;;;;;;11.99;56.87;101103.53;5073030;28;20044;-40
2022/10/17 00:59:57;;;;;;;17.73;12.43;;;;;;;11.98;56.75;101106.41;5072949;28;20090;-43
2022/10/17 01:02:22;;;;;;;19.77;12.52;;;;;;;11.85;57.00;101102.47;5072954;28;20020;-41
2022/10/17 01:04:51;;;;;;;16.85;11.85;;;;;;;11.74;56.76;101106.38;5072833;28;20035;-41
2022/10/17 01:07:16;;;;;;;19.15;12.38;;;;;;;11.82;56.39;101107.31;5072323;28;20023;-41
2022/10/17 01:09:44;;;;;;;18.50;12.60;;;;;;;11.63;57.97;101105.97;5072694;28;20016;-41
2022/10/17 01:12:18;;;;;;;17.95;12.65;;;;;;;11.78;57.24;101103.34;5072557;28;20433;-41
2022/10/17 01:14:51;;;;;;;19.17;13.05;;;;;;;11.67;57.29;101113.44;5072720;28;20024;-41
2022/10/17 01:17:27;;;;;;;17.73;12.85;;;;;;;11.72;56.78;101104.91;5072503;28;20444;-41
2022/10/17 01:20:10;;;;;;;20.85;12.77;;;;;;;11.78;56.91;101114.03;5072439;28;20021;-41
2022/10/17 01:23:23;;;;;;;21.45;12.70;;;;;;;11.71;57.17;101112.06;5072344;28;20051;-41
2022/10/17 01:26:01;;;;;;;;;;;;;;;11.99;56.71;101122.22;5040865;28;20051;-40
2022/10/17 01:28:27;;;;;;;14.75;11.23;;;;;;;11.74;56.35;101114.38;5072245;28;20015;-41
2022/10/17 01:31:18;;;;;;;19.20;12.10;;;;;;;11.66;57.16;101119.78;5072333;28;20455;-41
2022/10/17 01:34:15;;;;;;;20.73;12.00;;;;;;;11.69;57.12;101119.44;5071757;28;20111;-41
2022/10/17 01:36:52;;;;;;;17.15;11.93;;;;;;;11.45;57.98;101114.25;5068060;28;20032;-41
2022/10/17 01:39:28;;;;;;;19.30;11.88;;;;;;;11.33;58.19;101111.97;5072151;28;20089;-41
2022/10/17 01:41:54;;;;;;;19.58;12.45;;;;;;;11.25;58.33;101108.50;5072059;28;20056;-41
2022/10/17 01:44:27;;;;;;;18.65;12.23;;;;;;;11.19;59.28;101109.22;5071921;28;20048;-41
2022/10/17 01:47:07;;;;;;;17.20;11.60;;;;;;;11.21;58.78;101107.22;5071951;28;20099;-41
2022/10/17 01:49:36;;;;;;;18.25;11.70;;;;;;;11.09;58.94;101109.44;5071725;28;20479;-41
2022/10/17 01:52:07;;;;;;;16.48;11.57;;;;;;;11.24;59.03;101113.03;5071947;28;20081;-41
2022/10/17 01:54:44;;;;;;;18.13;11.93;;;;;;;11.19;58.63;101110.03;5071816;28;20025;-41
2022/10/17 01:57:17;;;;;;;17.55;11.65;;;;;;;11.26;58.70;101119.00;5071760;28;20024;-41
2022/10/17 01:59:47;;;;;;;20.45;12.35;;;;;;;11.05;58.72;101122.25;5070867;28;20498;-41
2022/10/17 02:02:14;;;;;;;21.60;12.45;;;;;;;11.05;59.19;101126.78;5071620;28;20079;-41
2022/10/17 02:04:41;;;;;;;19.95;12.23;;;;;;;10.96;59.51;101120.63;5071913;28;20056;-41
2022/10/17 02:07:08;;;;;;;18.02;12.05;;;;;;;10.68;60.18;101125.53;5071554;28;20021;-41
2022/10/17 02:09:35;;;;;;;16.05;11.75;;;;;;;10.82;59.91;101121.38;5071373;28;20023;-40
2022/10/17 02:12:15;;;;;;;18.90;12.20;;;;;;;10.91;59.94;101133.66;5071479;28;20013;-41
2022/10/17 02:14:57;;;;;;;16.63;12.00;;;;;;;10.77;59.77;101129.84;5071593;28;20024;-41
2022/10/17 02:17:58;;;;;;;19.02;11.70;;;;;;;10.67;59.97;101134.53;5071296;28;20607;-41
2022/10/17 02:20:36;;;;;;;17.05;11.88;;;;;;;10.61;60.28;101137.91;5018669;28;20059;-41
2022/10/17 02:23:19;;;;;;;19.73;11.70;;;;;;;10.76;60.26;101133.53;5071315;28;20181;-41
2022/10/17 02:26:08;;;;;;;18.90;12.02;;;;;;;10.77;60.52;101135.19;5070962;28;20040;-41
2022/10/17 02:28:59;;;;;;;15.02;11.07;;;;;;;10.93;59.27;101136.97;5070538;28;20026;-41
2022/10/17 02:31:27;;;;;;;;;;;;;;;11.28;58.42;101145.47;5068646;28;20074;-41
2022/10/17 02:34:01;;;;;;;19.00;10.57;;;;;;;11.03;58.56;101147.44;5070434;28;19908;-41
2022/10/17 02:36:33;;;;;;;17.52;10.82;;;;;;;10.98;58.35;101149.75;5070390;28;20082;-40
2022/10/17 02:39:01;;;;;;;18.08;10.30;;;;;;;10.89;59.26;101140.97;5070329;28;20139;-41
2022/10/17 02:41:29;;;;;;;17.30;10.73;;;;;;;10.88;59.29;101158.78;5070591;28;20090;-41
2022/10/17 02:43:54;;;;;;;17.60;10.35;;;;;;;10.82;59.32;101155.97;5070527;28;20527;-42
2022/10/17 02:46:23;;;;;;;16.02;11.05;;;;;;;10.82;59.12;101170.13;5070736;28;20048;-42
2022/10/17 02:49:06;;;;;;;18.20;10.73;;;;;;;10.74;59.95;101170.16;5070487;28;20028;-42
2022/10/17 02:51:37;;;;;;;14.65;9.90;;;;;;;10.79;58.87;101177.63;5071035;28;20016;-41
2022/10/17 02:54:03;;;;;;;15.55;10.25;;;;;;;10.84;59.30;101168.13;5071723;28;20043;-44
2022/10/17 02:56:32;;;;;;;18.95;10.63;;;;;;;10.87;59.13;101167.78;5071451;28;20028;-42
2022/10/17 02:59:00;;;;;;;15.48;9.90;;;;;;;10.89;58.40;101171.09;5071022;28;20028;-42
2022/10/17 03:01:26;;;;;;;14.32;9.50;;;;;;;10.79;58.69;101172.28;5070334;28;20020;-42
2022/10/17 03:04:03;;;;;;;15.82;10.48;;;;;;;10.72;59.53;101172.16;5070684;28;20052;-42
2022/10/17 03:06:29;;;;;;;14.65;10.60;;;;;;;10.62;59.04;101182.13;5070506;28;20021;-41
2022/10/17 03:08:54;;;;;;;22.75;13.75;;;;;;;10.53;59.57;101176.84;5070542;28;20097;-41
2022/10/17 03:11:19;;;;;;;31.25;17.25;;;;;;;10.59;59.32;101179.81;5070682;28;20111;-42
2022/10/17 03:13:45;;;;;;;21.13;12.05;;;;;;;10.46;59.81;101170.50;5070695;28;20017;-42
2022/10/17 03:16:10;;;;;;;20.00;11.45;;;;;;;10.56;59.25;101171.16;5070387;28;20473;-43
2022/10/17 03:18:36;;;;;;;17.38;10.90;;;;;;;10.57;59.31;101172.81;5070393;28;20099;-42
2022/10/17 03:21:01;;;;;;;22.73;11.80;;;;;;;10.36;60.09;101180.50;5070181;28;20049;-42
2022/10/17 03:23:26;;;;;;;25.17;10.70;;;;;;;10.43;59.57;101186.81;5070528;28;20537;-42
2022/10/17 03:25:52;;;;;;;21.75;10.77;;;;;;;10.41;59.98;101186.13;5070175;28;20021;-41
2022/10/17 03:28:17;;;;;;;21.58;11.60;;;;;;;10.33;60.32;101172.84;5070121;28;20027;-42
2022/10/17 03:30:43;;;;;;;21.10;10.65;;;;;;;10.29;60.43;101179.47;5069739;28;20036;-42
2022/10/17 03:33:08;;;;;;;17.67;9.98;;;;;;;10.43;59.89;101176.16;5070293;28;20078;-42
2022/10/17 03:35:37;;;;;;;17.50;9.90;;;;;;;10.46;60.14;101177.66;5070367;28;20027;-42
2022/10/17 03:38:03;;;;;;;12.98;8.70;;;;;;;10.36;60.08;101176.00;5070370;28;20027;-42
2022/10/17 03:40:28;;;;;;;12.80;8.30;;;;;;;10.36;60.19;101177.84;5070267;28;20606;-42
2022/10/17 03:42:54;;;;;;;25.35;16.10;;;;;;;10.24;61.10;101181.78;5070301;28;20107;-42
2022/10/17 03:45:19;;;;;;;18.35;11.45;;;;;;;10.04;61.25;101181.31;5070224;28;20031;-42
2022/10/17 03:47:44;;;;;;;14.50;8.48;;;;;;;10.12;60.58;101187.44;5069886;28;20017;-42
2022/10/17 03:50:10;;;;;;;12.23;8.05;;;;;;;10.11;60.59;101191.13;5069949;28;20025;-42
2022/10/17 03:52:35;;;;;;;12.02;7.88;;;;;;;9.93;61.49;101193.06;5070202;28;20413;-42
2022/10/17 03:55:01;;;;;;;10.93;8.35;;;;;;;9.68;62.19;101197.50;5069670;28;20020;-42
2022/10/17 03:57:26;;;;;;;12.38;8.00;;;;;;;9.92;61.40;101188.78;5069416;28;20338;-42
2022/10/17 03:59:52;;;;;;;13.52;8.18;;;;;;;9.45;62.72;101189.31;5069338;28;20017;-42
2022/10/17 04:02:17;;;;;;;11.07;7.43;;;;;;;9.84;62.09;101180.75;5078882;28;20021;-42
2022/10/17 04:04:42;;;;;;;11.32;7.75;;;;;;;10.11;67.40;101182.28;5074550;28;20027;-42
2022/10/17 04:07:08;;;;;;;11.82;7.40;;;;;;;10.31;62.39;101183.66;5073282;28;20036;-42
2022/10/17 04:09:33;;;;;;;12.35;7.90;;;;;;;10.45;61.50;101179.50;5069213;28;20573;-41
2022/10/17 04:11:59;;;;;;;20.15;12.55;;;;;;;10.47;61.00;101174.00;5069446;28;20032;-42
2022/10/17 04:14:24;;;;;;;12.77;8.73;;;;;;;10.35;60.67;101181.50;5069388;28;20099;-42
2022/10/17 04:16:50;;;;;;;13.43;7.68;;;;;;;10.36;60.65;101188.50;5069015;28;20016;-41
2022/10/17 04:19:15;;;;;;;17.27;7.78;;;;;;;10.15;62.10;101181.81;5068656;28;20052;-42
2022/10/17 04:21:41;;;;;;;11.00;7.85;;;;;;;10.10;64.01;101191.28;5067727;28;20051;-42
2022/10/17 04:24:09;;;;;;;12.60;7.22;;;;;;;10.06;63.06;101192.59;5067955;28;20024;-42
2022/10/17 04:26:35;;;;;;;12.37;7.80;;;;;;;10.15;61.39;101200.41;5067778;28;20131;-42
2022/10/17 04:29:00;;;;;;;9.95;7.22;;;;;;;10.29;60.12;101203.41;5067822;28;20028;-42
2022/10/17 04:31:26;;;;;;;12.88;7.75;;;;;;;9.94;61.70;101197.41;5067703;28;20040;-41
2022/10/17 04:33:51;;;;;;;11.07;7.68;;;;;;;10.07;61.20;101197.75;5058180;28;20017;-42
2022/10/17 04:36:19;;;;;;;15.10;8.23;;;;;;;10.91;71.53;101203.72;5048887;28;20025;-42
2022/10/17 04:38:45;;;;;;;15.32;6.93;;;;;;;12.37;63.63;101204.97;5066923;28;20036;-42
2022/10/17 04:41:13;;;;;;;11.57;6.85;;;;;;;12.46;64.07;101217.25;5069137;28;20029;-42
2022/10/17 04:43:39;;;;;;;11.05;7.05;;;;;;;12.84;62.79;101219.91;5076237;28;20025;-42
2022/10/17 04:46:11;;;;;;;12.52;6.80;;;;;;;12.88;61.58;101212.38;5075661;28;20020;-49
2022/10/17 04:48:37;;;;;;;9.48;6.60;;;;;;;13.05;57.91;101192.47;5087298;28;20024;-48
2022/10/17 04:51:06;;;;;;;10.45;6.75;;;;;;;12.96;57.78;101214.13;5069887;28;20043;-41
2022/10/17 04:53:33;;;;;;;11.38;7.00;;;;;;;13.21;60.01;101217.34;5069932;28;20027;-42
2022/10/17 04:55:59;;;;;;;13.88;7.30;;;;;;;13.30;58.56;101222.44;5070584;28;20032;-42
2022/10/17 04:58:27;;;;;;;17.25;12.20;;;;;;;12.98;55.30;101190.72;5070973;28;20031;-42
2022/10/17 05:00:52;;;;;;;12.75;7.50;;;;;;;13.00;53.03;101231.44;5070839;28;20044;-42
2022/10/17 05:03:18;;;;;;;23.15;16.33;;;;;;;12.50;56.15;101241.75;5070516;28;20032;-41
2022/10/17 05:05:43;;;;;;;16.45;7.80;;;;;;;12.61;54.52;101256.53;5070602;28;20093;-42
2022/10/17 05:08:10;;;;;;;12.23;6.85;;;;;;;12.75;53.20;101268.25;5070792;28;20081;-42
2022/10/17 05:10:39;;;;;;;8.65;6.97;;;;;;;12.88;52.26;101263.94;5070600;28;20025;-42
2022/10/17 05:13:05;;;;;;;;;;;;;;;13.33;51.68;101268.53;5068532;28;20189;-42
2022/10/17 05:15:31;;;;;;;15.93;7.82;;;;;;;13.00;53.01;101260.84;5071004;28;19909;-43
2022/10/17 05:17:56;;;;;;;17.98;7.07;;;;;;;13.54;50.84;101265.97;5071105;28;20028;-42
2022/10/17 05:20:22;;;;;;;12.48;7.25;;;;;;;13.66;50.78;101275.16;5070727;28;20032;-49
2022/10/17 05:22:48;;;;;;;14.18;7.78;;;;;;;13.71;50.57;101276.44;5070824;28;20029;-48
2022/10/17 05:25:13;;;;;;;12.85;7.78;;;;;;;13.92;50.98;101273.84;5068944;28;20034;-48
2022/10/17 05:27:39;;;;;;;12.88;7.07;;;;;;;14.15;50.41;101283.56;5069729;28;20312;-48
2022/10/17 05:30:05;;;;;;;11.82;7.43;;;;;;;14.29;48.66;101285.34;5070201;28;20107;-49
2022/10/17 05:32:30;;;;;;;9.65;6.80;;;;;;;14.51;49.18;101294.22;5071147;28;20025;-49
2022/10/17 05:34:56;;;;;;;10.88;6.50;;;;;;;14.77;48.64;101288.28;5071820;28;20458;-48
2022/10/17 05:37:21;;;;;;;16.00;7.82;;;;;;;14.82;48.35;101283.19;5070796;28;20107;-49
2022/10/17 05:39:46;;;;;;;14.45;7.38;;;;;;;15.17;47.97;101293.13;5071227;28;20024;-48
2022/10/17 05:42:12;;;;;;;10.13;6.47;;;;;;;15.60;47.29;101290.28;5071584;28;20024;-49
2022/10/17 05:44:40;;;;;;;13.85;6.28;;;;;;;15.92;47.33;101307.59;5071347;28;20039;-48
2022/10/17 05:47:06;;;;;;;12.82;6.68;;;;;;;16.39;45.39;101302.34;5070062;28;20686;-43
2022/10/17 05:49:32;;;;;;;10.90;6.57;;;;;;;16.75;44.41;101306.50;5068600;28;20032;-45
2022/10/17 05:51:57;;;;;;;13.15;6.90;;;;;;;17.15;44.77;101314.59;5069660;28;20032;-44
2022/10/17 05:54:23;;;;;;;9.43;6.90;;;;;;;17.53;42.74;101312.03;5069689;28;20103;-41
2022/10/17 05:56:55;;;;;;;12.48;6.63;;;;;;;17.86;41.79;101305.75;5070038;28;20229;-45
2022/10/17 05:59:23;;;;;;;8.93;6.45;;;;;;;17.85;42.08;101316.72;5069904;28;20028;-44
2022/10/17 06:01:48;;;;;;;10.18;6.60;;;;;;;18.14;40.88;101318.03;5069983;28;20074;-43
2022/10/17 06:04:14;;;;;;;11.82;7.10;;;;;;;18.43;40.21;101316.66;5070000;28;20028;-42
2022/10/17 06:06:39;;;;;;;10.30;6.57;;;;;;;18.64;40.02;101322.69;5067538;28;20029;-41
2022/10/17 06:09:06;;;;;;;15.82;7.00;;;;;;;18.92;39.22;101322.31;5068077;28;20024;-43
2022/10/17 06:11:32;;;;;;;12.05;6.05;;;;;;;19.12;39.03;101316.75;5068383;28;20086;-44
2022/10/17 06:13:58;;;;;;;13.73;7.13;;;;;;;19.52;38.19;101327.97;5068910;28;20020;-42
2022/10/17 06:16:23;;;;;;;11.90;7.05;;;;;;;19.56;37.70;101331.03;5068838;28;20559;-43
2022/10/17 06:18:48;;;;;;;17.00;9.02;;;;;;;19.75;37.59;101342.69;5066942;28;20469;-41
2022/10/17 06:21:23;;;;;;;10.73;7.50;;;;;;;19.84;37.10;101345.94;5068800;28;20045;-42
2022/10/17 06:23:49;;;;;;;11.57;7.18;;;;;;;19.71;36.54;101342.28;5069626;28;20028;-42
2022/10/17 06:26:15;;;;;;;10.88;7.20;;;;;;;19.85;36.27;101347.56;5069636;28;20477;-42
2022/10/17 06:28:41;;;;;;;11.15;6.00;;;;;;;20.06;35.31;101341.69;5069299;28;20108;-41
2022/10/17 06:31:13;;;;;;;8.88;5.32;;;;;;;20.17;35.28;101348.19;5069357;28;20024;-43
2022/10/17 06:33:39;;;;;;;10.20;5.68;;;;;;;20.30;34.15;101348.03;5069813;28;20017;-42
2022/10/17 06:36:06;;;;;;;9.35;5.57;;;;;;;20.22;35.07;101345.66;5069178;28;20393;-43
2022/10/17 06:38:33;;;;;;;10.60;6.22;;;;;;;20.08;35.17;101346.88;5069223;28;20029;-43
2022/10/17 06:41:13;;;;;;;11.07;6.15;;;;;;;20.53;34.48;101349.16;5069243;28;20104;-42
2022/10/17 06:43:42;;;;;;;12.02;6.00;;;;;;;20.68;34.15;101356.88;5069425;28;20473;-41
2022/10/17 06:46:08;;;;;;;10.97;5.90;;;;;;;21.17;33.52;101348.56;5069312;28;20112;-42
2022/10/17 06:48:34;;;;;;;10.25;6.40;;;;;;;21.07;32.80;101336.44;5068784;28;20024;-43
2022/10/17 06:51:00;;;;;;;8.60;5.85;;;;;;;20.40;34.74;101349.34;5069148;28;20072;-41
2022/10/17 06:53:31;;;;;;;12.40;5.97;;;;;;;20.74;34.62;101353.25;5069061;28;20020;-41
2022/10/17 06:56:01;;;;;;;7.70;5.90;;;;;;;21.24;33.55;101350.09;5069035;28;20029;-43
2022/10/17 06:58:28;;;;;;;8.05;5.80;;;;;;;21.66;33.02;101349.16;5068931;28;20059;-42
2022/10/17 07:00:58;;;;;;;8.30;6.18;;;;;;;22.23;32.29;101345.69;5068948;28;20090;-41
2022/10/17 07:03:23;;;;;;;10.38;6.00;;;;;;;22.69;31.15;101353.84;5068655;28;20033;-41
2022/10/17 07:05:53;;;;;;;8.65;5.90;;;;;;;22.78;31.01;101346.97;5068481;28;20452;-42
2022/10/17 07:08:18;;;;;;;;;;;;;;;23.37;30.03;101355.50;5069067;28;20101;-42
2022/10/17 07:10:43;;;;;;;9.63;5.90;;;;;;;23.33;30.11;101361.69;5068659;28;19909;-42
2022/10/17 07:13:09;;;;;;;8.60;5.90;;;;;;;23.03;30.54;101362.88;5068463;28;20028;-40
2022/10/17 07:15:35;;;;;;;7.10;5.63;;;;;;;22.99;30.76;101357.06;5069075;28;20126;-40
2022/10/17 07:18:01;;;;;;;6.93;5.72;;;;;;;23.28;30.22;101365.13;5068383;28;20137;-40
2022/10/17 07:20:26;;;;;;;10.07;5.78;;;;;;;23.27;30.27;101373.56;5068457;28;20032;-41
2022/10/17 07:22:52;;;;;;;11.13;6.65;;;;;;;23.36;30.20;101370.16;5068703;28;20043;-40
2022/10/17 07:25:17;;;;;;;10.13;5.93;;;;;;;23.64;30.07;101376.50;5067818;28;20505;-43
2022/10/17 07:27:43;;;;;;;9.68;6.18;;;;;;;24.09;29.19;101380.91;5068218;28;20051;-42
2022/10/17 07:30:09;;;;;;;8.45;6.30;;;;;;;24.16;29.00;101378.00;5068342;28;20036;-41
2022/10/17 07:32:34;;;;;;;7.72;5.90;;;;;;;24.30;28.78;101381.16;5067406;28;20097;-41
2022/10/17 07:35:00;;;;;;;9.15;6.07;;;;;;;23.71;29.51;101381.78;5067370;28;20028;-41
2022/10/17 07:37:25;;;;;;;7.78;6.07;;;;;;;23.72;29.87;101378.81;5067867;28;20052;-41
2022/10/17 07:39:50;;;;;;;11.20;7.40;;;;;;;24.12;29.22;101377.72;5068486;28;20085;-43
2022/10/17 07:42:16;;;;;;;12.85;9.15;;;;;;;24.33;29.03;101383.34;5068437;28;20472;-42
2022/10/17 07:44:41;;;;;;;8.77;6.38;;;;;;;24.38;28.87;101383.41;5068963;28;20032;-42
2022/10/17 07:47:07;;;;;;;11.48;5.78;;;;;;;24.63;28.35;101368.44;5068542;28;20099;-41
2022/10/17 07:49:32;;;;;;;8.60;5.82;;;;;;;24.96;27.62;101375.53;5067970;28;20044;-42
2022/10/17 07:51:58;;;;;;;7.35;5.35;;;;;;;25.11;27.34;101375.66;5068295;28;20027;-42
2022/10/17 07:54:23;;;;;;;8.63;5.80;;;;;;;25.15;27.75;101381.38;5068344;28;20047;-43
2022/10/17 07:56:49;;;;;;;9.40;5.50;;;;;;;25.22;27.51;101373.81;5068011;28;20036;-39
2022/10/17 07:59:16;;;;;;;8.52;5.35;;;;;;;24.69;28.14;101370.13;5068028;28;20461;-43
2022/10/17 08:01:42;;;;;;;11.30;5.90;;;;;;;25.05;27.53;101373.16;5068099;28;20158;-42
2022/10/17 08:04:07;;;;;;;13.30;6.25;;;;;;;24.65;28.42;101375.25;5068521;28;20111;-41
2022/10/17 08:06:33;;;;;;;9.20;5.78;;;;;;;24.37;28.63;101357.31;5067826;28;20036;-43
2022/10/17 08:09:00;;;;;;;8.63;5.00;;;;;;;24.57;28.44;101365.66;5068097;28;20024;-42
2022/10/17 08:11:25;;;;;;;11.30;5.85;;;;;;;25.03;27.91;101356.25;5068815;28;20101;-42
2022/10/17 08:13:51;;;;;;;8.50;5.60;;;;;;;25.15;27.77;101356.88;5067921;28;20016;-41
2022/10/17 08:16:16;;;;;;;10.65;6.10;;;;;;;25.04;27.97;101361.44;5070360;28;20032;-41
2022/10/17 08:18:42;;;;;;;8.23;5.00;;;;;;;24.86;28.16;101350.94;5072201;28;20028;-41
2022/10/17 08:21:08;;;;;;;6.53;5.13;;;;;;;25.14;27.71;101357.97;5071381;28;20067;-41
2022/10/17 08:23:34;;;;;;;8.98;5.30;;;;;;;24.61;28.14;101359.72;5073616;28;20108;-42
2022/10/17 08:26:01;;;;;;;6.20;5.03;;;;;;;25.18;27.35;101364.53;5072226;28;20042;-44
2022/10/17 08:28:28;;;;;;;8.20;5.15;;;;;;;24.27;28.64;101368.06;5070840;28;20028;-42
2022/10/17 08:31:01;;;;;;;12.32;5.80;;;;;;;24.82;27.87;101364.25;5069846;28;20360;-44
2022/10/17 08:33:26;;;;;;;11.57;6.07;;;;;;;24.97;27.67;101364.38;5070611;28;20012;-41
2022/10/17 08:35:52;;;;;;;7.75;6.07;;;;;;;25.39;27.21;101361.97;5071847;28;20614;-45
2022/10/17 08:38:17;;;;;;;8.93;5.38;;;;;;;24.94;28.05;101364.91;5071170;28;20016;-44
2022/10/17 08:40:43;;;;;;;9.23;5.68;;;;;;;25.50;27.33;101361.75;5072339;28;20075;-42
2022/10/17 08:43:37;;;;;;;8.20;5.30;;;;;;;25.59;27.05;101359.34;5072013;28;20024;-43
2022/10/17 08:46:06;;;;;;;8.60;6.15;;;;;;;23.72;29.45;101359.78;5052993;28;20028;-43
2022/10/17 08:48:36;;;;;;;9.13;6.07;;;;;;;24.15;29.17;101355.41;5071176;28;20076;-44
2022/10/17 08:51:16;;;;;;;9.90;5.30;;;;;;;24.48;28.50;101360.91;5071263;28;20407;-42
2022/10/17 08:53:52;;;;;;;9.15;5.45;;;;;;;24.84;28.33;101364.00;5069436;28;20019;-43
2022/10/17 08:56:29;;;;;;;8.65;5.78;;;;;;;25.00;27.90;101357.59;5068864;28;20074;-41
2022/10/17 08:58:54;;;;;;;8.45;5.82;;;;;;;25.26;26.77;101347.72;5070967;28;20607;-40
2022/10/17 09:01:32;;;;;;;9.52;5.57;;;;;;;24.23;28.58;101356.88;5071676;28;20056;-42
2022/10/17 09:04:22;;;;;;;10.75;5.43;;;;;;;24.72;27.94;101350.56;5069073;28;20048;-41
2022/10/17 09:07:28;;;;;;;11.23;5.90;;;;;;;24.57;28.23;101349.34;5069937;28;20089;-43
2022/10/17 09:10:02;;;;;;;12.68;5.10;;;;;;;24.26;28.10;101344.66;5070351;28;20016;-42
2022/10/17 09:12:34;;;;;;;7.80;4.50;;;;;;;24.91;27.36;101342.81;5070011;28;20392;-43
2022/10/17 09:15:33;;;;;;;7.80;5.20;;;;;;;24.79;26.89;101340.28;5067798;28;20551;-41
2022/10/17 09:18:07;;;;;;;10.45;4.97;;;;;;;24.42;27.10;101338.28;5068192;28;20020;-40
2022/10/17 09:20:39;;;;;;;9.63;4.80;;;;;;;23.93;27.68;101333.72;5070395;28;20107;-42
2022/10/17 09:23:29;;;;;;;8.57;4.90;;;;;;;24.62;27.21;101334.13;5081774;28;20059;-41
2022/10/17 09:25:58;;;;;;;13.45;4.93;;;;;;;24.43;26.83;101329.06;5091210;28;20023;-41
2022/10/17 09:28:32;;;;;;;6.68;4.93;;;;;;;23.73;26.88;101341.59;5089963;28;20442;-42
2022/10/17 09:31:19;;;;;;;8.05;4.65;;;;;;;23.45;27.30;101334.41;5090555;28;20419;-43
2022/10/17 09:33:46;;;;;;;9.82;5.05;;;;;;;23.47;27.46;101332.28;5089130;28;20046;-43
2022/10/17 09:36:21;;;;;;;7.50;4.63;;;;;;;23.09;28.07;101323.84;5083740;28;20017;-42
2022/10/17 09:38:51;;;;;;;12.43;5.00;;;;;;;22.99;28.95;101319.06;5069423;28;20029;-42
2022/10/17 09:41:20;;;;;;;6.90;5.05;;;;;;;23.45;28.68;101321.66;5069392;28;20162;-41
2022/10/17 09:43:46;;;;;;;8.40;4.50;;;;;;;23.80;27.71;101318.59;5069796;28;20119;-42
2022/10/17 09:46:12;;;;;;;11.93;5.07;;;;;;;23.20;28.47;101312.06;5068707;28;20025;-42
2022/10/17 09:48:44;;;;;;;8.57;4.68;;;;;;;23.30;28.30;101311.41;5068363;28;20032;-41
2022/10/17 09:51:10;;;;;;;10.23;4.30;;;;;;;23.37;27.57;101319.38;5068467;28;20036;-42
2022/10/17 09:53:39;;;;;;;10.70;4.30;;;;;;;23.13;28.36;101311.47;5068475;28;20062;-42
2022/10/17 09:56:12;;;;;;;9.27;4.25;;;;;;;23.74;27.08;101322.31;5069496;28;20021;-42
2022/10/17 09:58:45;;;;;;;7.47;4.18;;;;;;;23.48;26.65;101315.72;5069617;28;20016;-44
2022/10/17 10:01:21;;;;;;;9.60;3.78;;;;;;;23.20;26.53;101295.78;5069888;28;20121;-43
2022/10/17 10:04:06;;;;;;;5.40;4.00;;;;;;;23.48;26.33;101304.88;5070192;28;20024;-43
2022/10/17 10:06:32;;;;;;;5.82;3.47;;;;;;;23.56;26.04;101303.59;5069809;28;20059;-43
2022/10/17 10:08:57;;;;;;;7.07;3.55;;;;;;;23.95;25.22;101296.22;5069646;28;20479;-43
2022/10/17 10:12:03;;;;;;;6.93;3.60;;;;;;;24.09;24.54;101291.19;5069608;28;20024;-46
2022/10/17 10:14:38;;;;;;;5.07;3.45;;;;;;;24.47;24.47;101286.66;5069851;28;20443;-43
2022/10/17 10:17:24;;;;;;;8.23;3.33;;;;;;;25.00;23.42;101286.81;5069884;28;20525;-43
2022/10/17 10:19:51;;;;;;;4.10;2.90;;;;;;;24.93;22.63;101278.84;5069728;28;20103;-44
2022/10/17 10:22:19;;;;;;;6.00;3.08;;;;;;;24.76;22.11;101272.75;5069522;28;20124;-43
2022/10/17 10:24:44;;;;;;;4.32;3.13;;;;;;;24.18;22.73;101278.78;5069808;28;20039;-41
2022/10/17 10:27:16;;;;;;;3.92;2.95;;;;;;;24.10;22.96;101278.41;5069052;28;20025;-42
2022/10/17 10:29:41;;;;;;;4.88;3.00;;;;;;;23.88;22.81;101267.59;5069174;28;20521;-42
2022/10/17 10:32:08;;;;;;;10.80;2.90;;;;;;;24.46;22.55;101268.66;5069461;28;20101;-42
2022/10/17 10:34:35;;;;;;;4.22;2.55;;;;;;;24.25;22.74;101273.13;5069000;28;20119;-42
2022/10/17 10:37:14;;;;;;;6.20;2.85;;;;;;;23.64;23.19;101264.28;5068765;28;20028;-43
2022/10/17 10:39:48;;;;;;;4.13;3.00;;;;;;;23.67;23.58;101261.91;5068106;28;20074;-42
2022/10/17 10:42:27;;;;;;;5.57;2.80;;;;;;;24.38;24.10;101258.28;5068977;28;20020;-43
2022/10/17 10:45:11;;;;;;;5.38;2.70;;;;;;;25.07;22.72;101256.59;5069837;28;20035;-40
2022/10/17 10:47:37;;;;;;;3.78;2.60;;;;;;;23.95;24.28;101251.88;5069657;28;20052;-41
2022/10/17 10:50:21;;;;;;;3.95;2.85;;;;;;;22.98;25.18;101241.44;5069065;28;20051;-43
2022/10/17 10:52:59;;;;;;;5.40;3.00;;;;;;;23.33;25.11;101251.16;5069063;28;20059;-42
2022/10/17 10:55:39;;;;;;;5.38;2.60;;;;;;;23.92;24.46;101246.97;5069027;28;20571;-43
2022/10/17 10:58:19;;;;;;;4.50;2.70;;;;;;;24.26;23.74;101244.03;5068748;28;20162;-44
2022/10/17 11:00:44;;;;;;;;;;;;;;;24.53;23.87;101246.72;5069815;28;20032;-41
2022/10/17 11:03:35;;;;;;;6.43;2.72;;;;;;;24.46;24.49;101241.47;5069100;28;19912;-42
2022/10/17 11:06:13;;;;;;;5.72;2.75;;;;;;;24.58;24.31;101236.69;5069098;28;20032;-42
2022/10/17 11:08:47;;;;;;;5.13;2.80;;;;;;;25.17;23.71;101243.06;5068806;28;20044;-44
2022/10/17 11:11:38;;;;;;;4.22;2.50;;;;;;;25.34;23.43;101240.97;5069027;28;20032;-45
2022/10/17 11:14:19;;;;;;;3.97;2.90;;;;;;;24.27;24.37;101241.03;5069198;28;20032;-43
2022/10/17 11:17:09;;;;;;;5.45;2.70;;;;;;;23.99;24.89;101242.16;5069068;28;20028;-43
2022/10/17 11:19:45;;;;;;;7.13;2.80;;;;;;;23.83;24.80;101240.34;5068947;28;20537;-42
2022/10/17 11:22:26;;;;;;;3.00;2.30;;;;;;;24.40;23.97;101228.91;5068220;28;20056;-42
2022/10/17 11:24:55;;;;;;;4.18;2.42;;;;;;;24.78;24.02;101225.13;5069284;28;20060;-41
2022/10/17 11:27:22;;;;;;;4.70;2.53;;;;;;;25.24;23.60;101221.03;5068932;28;20073;-45
2022/10/17 11:29:47;;;;;;;4.40;2.60;;;;;;;25.70;22.75;101213.84;5068948;28;20506;-42
2022/10/17 11:32:37;;;;;;;4.30;2.80;;;;;;;26.04;22.35;101202.44;5068473;28;20069;-41